sensor_id;sensor_type;location;lat;lon;timestamp;pressure;altitude;pressure_sealevel;temperature
21336;BMP180;69435;52.670;13.544;2023-11-19T00:02:13;100898.00;;;8.30
21336;BMP180;69435;52.670;13.544;2023-11-19T00:05:01;100870.00;;;8.30
21336;BMP180;69435;52.670;13.544;2023-11-19T00:07:47;100880.00;;;8.30
21336;BMP180;69435;52.670;13.544;2023-11-19T00:10:33;100844.00;;;8.30
21336;BMP180;69435;52.670;13.544;2023-11-19T00:13:19;100859.00;;;8.30
21336;BMP180;69435;52.670;13.544;2023-11-19T00:16:08;100832.00;;;8.40
21336;BMP180;69435;52.670;13.544;2023-11-19T00:18:55;100830.00;;;8.40
21336;BMP180;69435;52.670;13.544;2023-11-19T00:21:41;100824.00;;;8.40
21336;BMP180;69435;52.670;13.544;2023-11-19T00:24:27;100791.00;;;8.40
21336;BMP180;69435;52.670;13.544;2023-11-19T00:27:14;100800.00;;;8.40
21336;BMP180;69435;52.670;13.544;2023-11-19T00:30:00;100811.00;;;8.40
21336;BMP180;69435;52.670;13.544;2023-11-19T00:32:46;100810.00;;;8.40
21336;BMP180;69435;52.670;13.544;2023-11-19T00:35:32;100801.00;;;8.40
21336;BMP180;69435;52.670;13.544;2023-11-19T00:38:18;100808.00;;;8.30
21336;BMP180;69435;52.670;13.544;2023-11-19T00:41:05;100797.00;;;8.40
21336;BMP180;69435;52.670;13.544;2023-11-19T00:43:51;100791.00;;;8.40
21336;BMP180;69435;52.670;13.544;2023-11-19T00:46:37;100779.00;;;8.40
21336;BMP180;69435;52.670;13.544;2023-11-19T00:49:23;100766.00;;;8.30
21336;BMP180;69435;52.670;13.544;2023-11-19T00:52:09;100757.00;;;8.30
21336;BMP180;69435;52.670;13.544;2023-11-19T00:54:55;100754.00;;;8.30
21336;BMP180;69435;52.670;13.544;2023-11-19T00:57:42;100737.00;;;8.40
21336;BMP180;69435;52.670;13.544;2023-11-19T01:00:28;100741.00;;;8.40
21336;BMP180;69435;52.670;13.544;2023-11-19T01:03:15;100724.00;;;8.40
21336;BMP180;69435;52.670;13.544;2023-11-19T01:06:01;100722.00;;;8.40
21336;BMP180;69435;52.670;13.544;2023-11-19T01:08:48;100721.00;;;8.40
21336;BMP180;69435;52.670;13.544;2023-11-19T01:11:34;100683.00;;;8.30
21336;BMP180;69435;52.670;13.544;2023-11-19T01:14:22;100709.00;;;8.40
21336;BMP180;69435;52.670;13.544;2023-11-19T01:17:08;100706.00;;;8.40
21336;BMP180;69435;52.670;13.544;2023-11-19T01:19:54;100684.00;;;8.40
21336;BMP180;69435;52.670;13.544;2023-11-19T01:22:40;100666.00;;;8.40
21336;BMP180;69435;52.670;13.544;2023-11-19T01:25:27;100670.00;;;8.30
21336;BMP180;69435;52.670;13.544;2023-11-19T01:28:13;100661.00;;;8.30
21336;BMP180;69435;52.670;13.544;2023-11-19T01:30:59;100636.00;;;8.30
21336;BMP180;69435;52.670;13.544;2023-11-19T01:33:45;100665.00;;;8.30
21336;BMP180;69435;52.670;13.544;2023-11-19T01:36:32;100642.00;;;8.20
21336;BMP180;69435;52.670;13.544;2023-11-19T01:39:18;100615.00;;;8.30
21336;BMP180;69435;52.670;13.544;2023-11-19T01:42:06;100640.00;;;8.30
21336;BMP180;69435;52.670;13.544;2023-11-19T01:45:00;100603.00;;;8.30
21336;BMP180;69435;52.670;13.544;2023-11-19T01:47:52;100624.00;;;8.30
21336;BMP180;69435;52.670;13.544;2023-11-19T01:50:38;100602.00;;;8.30
21336;BMP180;69435;52.670;13.544;2023-11-19T01:53:26;100601.00;;;8.30
21336;BMP180;69435;52.670;13.544;2023-11-19T01:56:15;100559.00;;;8.30
21336;BMP180;69435;52.670;13.544;2023-11-19T01:59:03;100573.00;;;8.30
21336;BMP180;69435;52.670;13.544;2023-11-19T02:01:49;100552.00;;;8.30
21336;BMP180;69435;52.670;13.544;2023-11-19T02:04:37;100583.00;;;8.30
21336;BMP180;69435;52.670;13.544;2023-11-19T02:07:24;100582.00;;;8.30
21336;BMP180;69435;52.670;13.544;2023-11-19T02:10:11;100543.00;;;8.40
21336;BMP180;69435;52.670;13.544;2023-11-19T02:12:59;100552.00;;;8.40
21336;BMP180;69435;52.670;13.544;2023-11-19T02:15:46;100512.00;;;8.40
21336;BMP180;69435;52.670;13.544;2023-11-19T02:18:32;100491.00;;;8.40
21336;BMP180;69435;52.670;13.544;2023-11-19T02:21:18;100498.00;;;8.40
21336;BMP180;69435;52.670;13.544;2023-11-19T02:24:08;100500.00;;;8.40
21336;BMP180;69435;52.670;13.544;2023-11-19T02:27:08;100499.00;;;8.50
21336;BMP180;69435;52.670;13.544;2023-11-19T02:29:56;100495.00;;;8.40
21336;BMP180;69435;52.670;13.544;2023-11-19T02:32:43;100466.00;;;8.40
21336;BMP180;69435;52.670;13.544;2023-11-19T02:35:29;100488.00;;;8.40
21336;BMP180;69435;52.670;13.544;2023-11-19T02:38:18;100469.00;;;8.40
21336;BMP180;69435;52.670;13.544;2023-11-19T02:41:05;100450.00;;;8.50
21336;BMP180;69435;52.670;13.544;2023-11-19T02:43:52;100430.00;;;8.50
21336;BMP180;69435;52.670;13.544;2023-11-19T02:46:38;100420.00;;;8.50
21336;BMP180;69435;52.670;13.544;2023-11-19T02:49:24;100410.00;;;8.40
21336;BMP180;69435;52.670;13.544;2023-11-19T02:52:10;100433.00;;;8.50
21336;BMP180;69435;52.670;13.544;2023-11-19T02:54:56;100395.00;;;8.50
21336;BMP180;69435;52.670;13.544;2023-11-19T02:57:42;100423.00;;;8.40
21336;BMP180;69435;52.670;13.544;2023-11-19T03:00:34;100427.00;;;8.40
21336;BMP180;69435;52.670;13.544;2023-11-19T03:03:29;100429.00;;;8.50
21336;BMP180;69435;52.670;13.544;2023-11-19T03:06:16;100376.00;;;8.50
21336;BMP180;69435;52.670;13.544;2023-11-19T03:09:02;100377.00;;;8.50
21336;BMP180;69435;52.670;13.544;2023-11-19T03:11:56;100376.00;;;8.50
21336;BMP180;69435;52.670;13.544;2023-11-19T03:14:42;100381.00;;;8.50
21336;BMP180;69435;52.670;13.544;2023-11-19T03:17:28;100374.00;;;8.50
21336;BMP180;69435;52.670;13.544;2023-11-19T03:20:14;100377.00;;;8.50
21336;BMP180;69435;52.670;13.544;2023-11-19T03:23:03;100383.00;;;8.60
21336;BMP180;69435;52.670;13.544;2023-11-19T03:25:49;100371.00;;;8.60
21336;BMP180;69435;52.670;13.544;2023-11-19T03:28:35;100359.00;;;8.60
21336;BMP180;69435;52.670;13.544;2023-11-19T03:31:21;100381.00;;;8.70
21336;BMP180;69435;52.670;13.544;2023-11-19T03:34:07;100366.00;;;8.70
21336;BMP180;69435;52.670;13.544;2023-11-19T03:36:54;100371.00;;;8.70
21336;BMP180;69435;52.670;13.544;2023-11-19T03:39:40;100312.00;;;8.70
21336;BMP180;69435;52.670;13.544;2023-11-19T03:42:27;100303.00;;;8.70
21336;BMP180;69435;52.670;13.544;2023-11-19T03:45:13;100304.00;;;8.60
21336;BMP180;69435;52.670;13.544;2023-11-19T03:48:00;100321.00;;;8.60
21336;BMP180;69435;52.670;13.544;2023-11-19T03:50:47;100293.00;;;8.60
21336;BMP180;69435;52.670;13.544;2023-11-19T03:53:33;100292.00;;;8.60
21336;BMP180;69435;52.670;13.544;2023-11-19T03:56:19;100268.00;;;8.50
21336;BMP180;69435;52.670;13.544;2023-11-19T03:59:06;100217.00;;;8.50
21336;BMP180;69435;52.670;13.544;2023-11-19T04:01:53;100276.00;;;8.50
21336;BMP180;69435;52.670;13.544;2023-11-19T04:04:42;100271.00;;;8.50
21336;BMP180;69435;52.670;13.544;2023-11-19T04:07:28;100238.00;;;8.50
21336;BMP180;69435;52.670;13.544;2023-11-19T04:10:14;100263.00;;;8.50
21336;BMP180;69435;52.670;13.544;2023-11-19T04:13:02;100264.00;;;8.50
21336;BMP180;69435;52.670;13.544;2023-11-19T04:15:50;100234.00;;;8.50
21336;BMP180;69435;52.670;13.544;2023-11-19T04:18:36;100232.00;;;8.60
21336;BMP180;69435;52.670;13.544;2023-11-19T04:21:22;100220.00;;;8.50
21336;BMP180;69435;52.670;13.544;2023-11-19T04:24:10;100203.00;;;8.50
21336;BMP180;69435;52.670;13.544;2023-11-19T04:26:59;100193.00;;;8.50
21336;BMP180;69435;52.670;13.544;2023-11-19T04:29:46;100183.00;;;8.40
21336;BMP180;69435;52.670;13.544;2023-11-19T04:32:32;100148.00;;;8.50
21336;BMP180;69435;52.670;13.544;2023-11-19T04:35:19;100207.00;;;8.50
21336;BMP180;69435;52.670;13.544;2023-11-19T04:38:05;100155.00;;;8.50
21336;BMP180;69435;52.670;13.544;2023-11-19T04:40:52;100191.00;;;8.50
21336;BMP180;69435;52.670;13.544;2023-11-19T04:43:38;100194.00;;;8.50
21336;BMP180;69435;52.670;13.544;2023-11-19T04:46:24;100172.00;;;8.50
21336;BMP180;69435;52.670;13.544;2023-11-19T04:49:11;100190.00;;;8.60
21336;BMP180;69435;52.670;13.544;2023-11-19T04:51:57;100165.00;;;8.60
21336;BMP180;69435;52.670;13.544;2023-11-19T04:54:44;100180.00;;;8.60
21336;BMP180;69435;52.670;13.544;2023-11-19T04:57:30;100157.00;;;8.60
21336;BMP180;69435;52.670;13.544;2023-11-19T05:00:18;100161.00;;;8.50
21336;BMP180;69435;52.670;13.544;2023-11-19T05:03:04;100146.00;;;8.50
21336;BMP180;69435;52.670;13.544;2023-11-19T05:05:50;100100.00;;;8.50
21336;BMP180;69435;52.670;13.544;2023-11-19T05:08:36;100095.00;;;8.40
21336;BMP180;69435;52.670;13.544;2023-11-19T05:11:22;100095.00;;;8.40
21336;BMP180;69435;52.670;13.544;2023-11-19T05:14:09;100100.00;;;8.40
21336;BMP180;69435;52.670;13.544;2023-11-19T05:16:55;100066.00;;;8.40
21336;BMP180;69435;52.670;13.544;2023-11-19T05:19:41;100086.00;;;8.40
21336;BMP180;69435;52.670;13.544;2023-11-19T05:22:27;100080.00;;;8.40
21336;BMP180;69435;52.670;13.544;2023-11-19T05:25:13;100057.00;;;8.40
21336;BMP180;69435;52.670;13.544;2023-11-19T05:27:59;100047.00;;;8.40
21336;BMP180;69435;52.670;13.544;2023-11-19T05:30:45;100037.00;;;8.40
21336;BMP180;69435;52.670;13.544;2023-11-19T05:33:31;100032.00;;;8.40
21336;BMP180;69435;52.670;13.544;2023-11-19T05:36:17;100049.00;;;8.50
21336;BMP180;69435;52.670;13.544;2023-11-19T05:39:03;100049.00;;;8.50
21336;BMP180;69435;52.670;13.544;2023-11-19T05:41:50;100053.00;;;8.50
21336;BMP180;69435;52.670;13.544;2023-11-19T05:44:36;100035.00;;;8.50
21336;BMP180;69435;52.670;13.544;2023-11-19T05:47:23;100052.00;;;8.50
21336;BMP180;69435;52.670;13.544;2023-11-19T05:50:10;100025.00;;;8.50
21336;BMP180;69435;52.670;13.544;2023-11-19T05:52:56;100003.00;;;8.40
21336;BMP180;69435;52.670;13.544;2023-11-19T05:55:42;100005.00;;;8.50
21336;BMP180;69435;52.670;13.544;2023-11-19T05:58:41;100035.00;;;8.50
21336;BMP180;69435;52.670;13.544;2023-11-19T06:01:27;100001.00;;;8.50
21336;BMP180;69435;52.670;13.544;2023-11-19T06:04:15;100007.00;;;8.50
21336;BMP180;69435;52.670;13.544;2023-11-19T06:07:01;100025.00;;;8.50
21336;BMP180;69435;52.670;13.544;2023-11-19T06:09:47;99994.00;;;8.60
21336;BMP180;69435;52.670;13.544;2023-11-19T06:12:34;100027.00;;;8.60
21336;BMP180;69435;52.670;13.544;2023-11-19T06:15:23;100029.00;;;8.60
21336;BMP180;69435;52.670;13.544;2023-11-19T06:18:09;100026.00;;;8.70
21336;BMP180;69435;52.670;13.544;2023-11-19T06:20:57;100019.00;;;8.70
21336;BMP180;69435;52.670;13.544;2023-11-19T06:23:43;100013.00;;;8.70
21336;BMP180;69435;52.670;13.544;2023-11-19T06:26:29;100001.00;;;8.80
21336;BMP180;69435;52.670;13.544;2023-11-19T06:29:18;100001.00;;;8.80
21336;BMP180;69435;52.670;13.544;2023-11-19T06:32:05;99982.00;;;8.80
21336;BMP180;69435;52.670;13.544;2023-11-19T06:34:52;99955.00;;;8.70
21336;BMP180;69435;52.670;13.544;2023-11-19T06:37:41;99973.00;;;8.80
21336;BMP180;69435;52.670;13.544;2023-11-19T06:40:27;99958.00;;;8.80
21336;BMP180;69435;52.670;13.544;2023-11-19T06:43:13;99948.00;;;8.80
21336;BMP180;69435;52.670;13.544;2023-11-19T06:45:59;99947.00;;;8.80
21336;BMP180;69435;52.670;13.544;2023-11-19T06:48:46;99959.00;;;8.90
21336;BMP180;69435;52.670;13.544;2023-11-19T06:51:32;99952.00;;;8.90
21336;BMP180;69435;52.670;13.544;2023-11-19T06:54:18;99944.00;;;8.90
21336;BMP180;69435;52.670;13.544;2023-11-19T06:57:04;99935.00;;;9.00
21336;BMP180;69435;52.670;13.544;2023-11-19T06:59:50;99938.00;;;9.00
21336;BMP180;69435;52.670;13.544;2023-11-19T07:02:37;99947.00;;;9.10
21336;BMP180;69435;52.670;13.544;2023-11-19T07:05:23;99934.00;;;9.10
21336;BMP180;69435;52.670;13.544;2023-11-19T07:08:09;99950.00;;;9.10
21336;BMP180;69435;52.670;13.544;2023-11-19T07:10:56;99934.00;;;9.10
21336;BMP180;69435;52.670;13.544;2023-11-19T07:13:42;99924.00;;;9.10
21336;BMP180;69435;52.670;13.544;2023-11-19T07:16:28;99936.00;;;9.20
21336;BMP180;69435;52.670;13.544;2023-11-19T07:19:14;99948.00;;;9.20
21336;BMP180;69435;52.670;13.544;2023-11-19T07:22:01;99949.00;;;9.30
21336;BMP180;69435;52.670;13.544;2023-11-19T07:24:47;99916.00;;;9.20
21336;BMP180;69435;52.670;13.544;2023-11-19T07:27:33;99941.00;;;9.20
21336;BMP180;69435;52.670;13.544;2023-11-19T07:30:19;99935.00;;;9.20
21336;BMP180;69435;52.670;13.544;2023-11-19T07:33:05;99932.00;;;9.30
21336;BMP180;69435;52.670;13.544;2023-11-19T07:35:51;99921.00;;;9.20
21336;BMP180;69435;52.670;13.544;2023-11-19T07:38:39;99951.00;;;9.30
21336;BMP180;69435;52.670;13.544;2023-11-19T07:41:25;99933.00;;;9.30
21336;BMP180;69435;52.670;13.544;2023-11-19T07:44:11;99949.00;;;9.30
21336;BMP180;69435;52.670;13.544;2023-11-19T07:46:57;99928.00;;;9.40
21336;BMP180;69435;52.670;13.544;2023-11-19T07:49:44;99926.00;;;9.40
21336;BMP180;69435;52.670;13.544;2023-11-19T07:52:30;99944.00;;;9.50
21336;BMP180;69435;52.670;13.544;2023-11-19T07:55:16;99931.00;;;9.40
21336;BMP180;69435;52.670;13.544;2023-11-19T07:58:02;99928.00;;;9.50
21336;BMP180;69435;52.670;13.544;2023-11-19T08:00:48;99929.00;;;9.50
21336;BMP180;69435;52.670;13.544;2023-11-19T08:03:34;99923.00;;;9.50
21336;BMP180;69435;52.670;13.544;2023-11-19T08:06:21;99923.00;;;9.60
21336;BMP180;69435;52.670;13.544;2023-11-19T08:09:07;99901.00;;;9.60
21336;BMP180;69435;52.670;13.544;2023-11-19T08:11:59;99932.00;;;9.60
21336;BMP180;69435;52.670;13.544;2023-11-19T08:14:45;99911.00;;;9.60
21336;BMP180;69435;52.670;13.544;2023-11-19T08:17:31;99925.00;;;9.60
21336;BMP180;69435;52.670;13.544;2023-11-19T08:20:17;99893.00;;;9.60
21336;BMP180;69435;52.670;13.544;2023-11-19T08:23:03;99926.00;;;9.60
21336;BMP180;69435;52.670;13.544;2023-11-19T08:25:49;99920.00;;;9.70
21336;BMP180;69435;52.670;13.544;2023-11-19T08:28:35;99917.00;;;9.70
21336;BMP180;69435;52.670;13.544;2023-11-19T08:31:21;99920.00;;;9.80
21336;BMP180;69435;52.670;13.544;2023-11-19T08:34:07;99900.00;;;9.90
21336;BMP180;69435;52.670;13.544;2023-11-19T08:36:54;99888.00;;;9.90
21336;BMP180;69435;52.670;13.544;2023-11-19T08:39:40;99901.00;;;9.90
21336;BMP180;69435;52.670;13.544;2023-11-19T08:42:27;99886.00;;;10.00
21336;BMP180;69435;52.670;13.544;2023-11-19T08:45:14;99852.00;;;10.00
21336;BMP180;69435;52.670;13.544;2023-11-19T08:48:00;99862.00;;;10.10
21336;BMP180;69435;52.670;13.544;2023-11-19T08:50:46;99882.00;;;10.20
21336;BMP180;69435;52.670;13.544;2023-11-19T08:53:32;99888.00;;;10.20
21336;BMP180;69435;52.670;13.544;2023-11-19T08:56:18;99870.00;;;10.20
21336;BMP180;69435;52.670;13.544;2023-11-19T08:59:05;99877.00;;;10.30
21336;BMP180;69435;52.670;13.544;2023-11-19T09:01:51;99878.00;;;10.30
21336;BMP180;69435;52.670;13.544;2023-11-19T09:04:37;99880.00;;;10.40
21336;BMP180;69435;52.670;13.544;2023-11-19T09:07:23;99846.00;;;10.50
21336;BMP180;69435;52.670;13.544;2023-11-19T09:10:10;99889.00;;;10.60
21336;BMP180;69435;52.670;13.544;2023-11-19T09:12:57;99889.00;;;10.60
21336;BMP180;69435;52.670;13.544;2023-11-19T09:15:43;99889.00;;;10.60
21336;BMP180;69435;52.670;13.544;2023-11-19T09:18:30;99910.00;;;10.70
21336;BMP180;69435;52.670;13.544;2023-11-19T09:21:16;99907.00;;;10.70
21336;BMP180;69435;52.670;13.544;2023-11-19T09:24:02;99881.00;;;10.70
21336;BMP180;69435;52.670;13.544;2023-11-19T09:26:48;99900.00;;;10.70
21336;BMP180;69435;52.670;13.544;2023-11-19T09:29:35;99897.00;;;10.70
21336;BMP180;69435;52.670;13.544;2023-11-19T09:32:21;99885.00;;;10.80
21336;BMP180;69435;52.670;13.544;2023-11-19T09:35:08;99855.00;;;10.70
21336;BMP180;69435;52.670;13.544;2023-11-19T09:37:54;99838.00;;;10.90
21336;BMP180;69435;52.670;13.544;2023-11-19T09:40:40;99848.00;;;10.90
21336;BMP180;69435;52.670;13.544;2023-11-19T09:43:28;99828.00;;;11.00
21336;BMP180;69435;52.670;13.544;2023-11-19T09:46:15;99850.00;;;11.00
21336;BMP180;69435;52.670;13.544;2023-11-19T09:49:04;99888.00;;;11.10
21336;BMP180;69435;52.670;13.544;2023-11-19T09:51:50;99870.00;;;11.30
21336;BMP180;69435;52.670;13.544;2023-11-19T09:54:36;99855.00;;;11.40
21336;BMP180;69435;52.670;13.544;2023-11-19T09:57:23;99861.00;;;11.50
21336;BMP180;69435;52.670;13.544;2023-11-19T10:00:10;99809.00;;;11.70
21336;BMP180;69435;52.670;13.544;2023-11-19T10:03:00;99844.00;;;11.80
21336;BMP180;69435;52.670;13.544;2023-11-19T10:05:46;99829.00;;;11.90
21336;BMP180;69435;52.670;13.544;2023-11-19T10:08:33;99837.00;;;11.90
21336;BMP180;69435;52.670;13.544;2023-11-19T10:11:19;99843.00;;;11.90
21336;BMP180;69435;52.670;13.544;2023-11-19T10:14:05;99841.00;;;12.00
21336;BMP180;69435;52.670;13.544;2023-11-19T10:16:51;99764.00;;;12.20
21336;BMP180;69435;52.670;13.544;2023-11-19T10:19:40;99841.00;;;12.30
21336;BMP180;69435;52.670;13.544;2023-11-19T10:22:30;99808.00;;;12.40
21336;BMP180;69435;52.670;13.544;2023-11-19T10:25:29;99819.00;;;12.60
21336;BMP180;69435;52.670;13.544;2023-11-19T10:28:15;99828.00;;;12.60
21336;BMP180;69435;52.670;13.544;2023-11-19T10:31:05;99827.00;;;12.80
21336;BMP180;69435;52.670;13.544;2023-11-19T10:33:52;99813.00;;;12.80
21336;BMP180;69435;52.670;13.544;2023-11-19T10:36:39;99821.00;;;13.00
21336;BMP180;69435;52.670;13.544;2023-11-19T10:39:52;99819.00;;;13.10
21336;BMP180;69435;52.670;13.544;2023-11-19T10:42:42;99807.00;;;13.20
21336;BMP180;69435;52.670;13.544;2023-11-19T10:45:28;99806.00;;;13.40
21336;BMP180;69435;52.670;13.544;2023-11-19T10:48:14;99820.00;;;13.60
21336;BMP180;69435;52.670;13.544;2023-11-19T10:51:06;99794.00;;;13.80
21336;BMP180;69435;52.670;13.544;2023-11-19T10:54:02;99800.00;;;14.00
21336;BMP180;69435;52.670;13.544;2023-11-19T10:56:58;99776.00;;;14.20
21336;BMP180;69435;52.670;13.544;2023-11-19T10:59:46;99795.00;;;14.40
21336;BMP180;69435;52.670;13.544;2023-11-19T11:02:41;99808.00;;;14.50
21336;BMP180;69435;52.670;13.544;2023-11-19T11:05:32;99795.00;;;14.70
21336;BMP180;69435;52.670;13.544;2023-11-19T11:08:20;99827.00;;;14.80
21336;BMP180;69435;52.670;13.544;2023-11-19T11:11:08;99807.00;;;14.80
21336;BMP180;69435;52.670;13.544;2023-11-19T11:13:59;99808.00;;;14.90
21336;BMP180;69435;52.670;13.544;2023-11-19T11:16:48;99797.00;;;15.00
21336;BMP180;69435;52.670;13.544;2023-11-19T11:19:36;99802.00;;;15.10
21336;BMP180;69435;52.670;13.544;2023-11-19T11:22:25;99784.00;;;15.20
21336;BMP180;69435;52.670;13.544;2023-11-19T11:25:23;99785.00;;;15.20
21336;BMP180;69435;52.670;13.544;2023-11-19T11:31:52;99797.00;;;15.30
21336;BMP180;69435;52.670;13.544;2023-11-19T11:35:08;99788.00;;;15.40
21336;BMP180;69435;52.670;13.544;2023-11-19T11:38:08;99792.00;;;15.40
21336;BMP180;69435;52.670;13.544;2023-11-19T11:44:05;99784.00;;;15.50
21336;BMP180;69435;52.670;13.544;2023-11-19T11:46:54;99789.00;;;15.60
21336;BMP180;69435;52.670;13.544;2023-11-19T11:49:41;99764.00;;;15.70
21336;BMP180;69435;52.670;13.544;2023-11-19T11:52:27;99788.00;;;15.70
21336;BMP180;69435;52.670;13.544;2023-11-19T11:55:13;99776.00;;;15.70
21336;BMP180;69435;52.670;13.544;2023-11-19T11:58:00;99783.00;;;15.60
21336;BMP180;69435;52.670;13.544;2023-11-19T12:00:48;99761.00;;;15.60
21336;BMP180;69435;52.670;13.544;2023-11-19T12:03:34;99766.00;;;15.50
21336;BMP180;69435;52.670;13.544;2023-11-19T12:06:22;99784.00;;;15.40
21336;BMP180;69435;52.670;13.544;2023-11-19T12:09:08;99773.00;;;15.40
21336;BMP180;69435;52.670;13.544;2023-11-19T12:15:03;99790.00;;;15.40
21336;BMP180;69435;52.670;13.544;2023-11-19T12:17:52;99776.00;;;15.30
21336;BMP180;69435;52.670;13.544;2023-11-19T12:20:38;99780.00;;;15.40
21336;BMP180;69435;52.670;13.544;2023-11-19T12:23:29;99783.00;;;15.40
21336;BMP180;69435;52.670;13.544;2023-11-19T12:26:38;99769.00;;;15.40
21336;BMP180;69435;52.670;13.544;2023-11-19T12:29:25;99787.00;;;15.40
21336;BMP180;69435;52.670;13.544;2023-11-19T12:32:11;99773.00;;;15.30
21336;BMP180;69435;52.670;13.544;2023-11-19T12:34:57;99771.00;;;15.20
21336;BMP180;69435;52.670;13.544;2023-11-19T12:37:46;99796.00;;;15.20
21336;BMP180;69435;52.670;13.544;2023-11-19T12:40:32;99773.00;;;15.10
21336;BMP180;69435;52.670;13.544;2023-11-19T12:43:22;99775.00;;;15.10
21336;BMP180;69435;52.670;13.544;2023-11-19T12:46:22;99804.00;;;15.10
21336;BMP180;69435;52.670;13.544;2023-11-19T12:49:11;99786.00;;;15.10
21336;BMP180;69435;52.670;13.544;2023-11-19T12:52:00;99796.00;;;15.00
21336;BMP180;69435;52.670;13.544;2023-11-19T12:54:46;99779.00;;;15.10
21336;BMP180;69435;52.670;13.544;2023-11-19T12:57:42;99791.00;;;15.10
21336;BMP180;69435;52.670;13.544;2023-11-19T13:00:28;99768.00;;;15.20
21336;BMP180;69435;52.670;13.544;2023-11-19T13:03:33;99787.00;;;15.20
21336;BMP180;69435;52.670;13.544;2023-11-19T13:06:19;99765.00;;;15.10
21336;BMP180;69435;52.670;13.544;2023-11-19T13:09:07;99768.00;;;15.10
21336;BMP180;69435;52.670;13.544;2023-11-19T13:11:56;99765.00;;;15.10
21336;BMP180;69435;52.670;13.544;2023-11-19T13:14:42;99783.00;;;15.10
21336;BMP180;69435;52.670;13.544;2023-11-19T13:17:30;99775.00;;;15.00
21336;BMP180;69435;52.670;13.544;2023-11-19T13:20:16;99769.00;;;15.10
21336;BMP180;69435;52.670;13.544;2023-11-19T13:23:06;99766.00;;;15.00
21336;BMP180;69435;52.670;13.544;2023-11-19T13:25:52;99749.00;;;15.10
21336;BMP180;69435;52.670;13.544;2023-11-19T13:28:38;99763.00;;;15.10
21336;BMP180;69435;52.670;13.544;2023-11-19T13:31:25;99755.00;;;15.10
21336;BMP180;69435;52.670;13.544;2023-11-19T13:34:11;99778.00;;;15.20
21336;BMP180;69435;52.670;13.544;2023-11-19T13:36:57;99740.00;;;15.20
21336;BMP180;69435;52.670;13.544;2023-11-19T13:39:43;99762.00;;;15.20
21336;BMP180;69435;52.670;13.544;2023-11-19T13:42:29;99775.00;;;15.30
21336;BMP180;69435;52.670;13.544;2023-11-19T13:45:17;99777.00;;;15.20
21336;BMP180;69435;52.670;13.544;2023-11-19T13:48:04;99748.00;;;15.30
21336;BMP180;69435;52.670;13.544;2023-11-19T13:50:50;99751.00;;;15.20
21336;BMP180;69435;52.670;13.544;2023-11-19T13:53:36;99778.00;;;15.20
21336;BMP180;69435;52.670;13.544;2023-11-19T13:56:23;99776.00;;;15.30
21336;BMP180;69435;52.670;13.544;2023-11-19T13:59:10;99770.00;;;15.20
21336;BMP180;69435;52.670;13.544;2023-11-19T14:01:56;99777.00;;;15.20
21336;BMP180;69435;52.670;13.544;2023-11-19T14:04:43;99780.00;;;15.20
21336;BMP180;69435;52.670;13.544;2023-11-19T14:07:29;99750.00;;;15.20
21336;BMP180;69435;52.670;13.544;2023-11-19T14:10:15;99764.00;;;15.10
21336;BMP180;69435;52.670;13.544;2023-11-19T14:13:01;99801.00;;;15.20
21336;BMP180;69435;52.670;13.544;2023-11-19T14:15:49;99777.00;;;15.20
21336;BMP180;69435;52.670;13.544;2023-11-19T14:18:35;99798.00;;;15.20
21336;BMP180;69435;52.670;13.544;2023-11-19T14:21:21;99788.00;;;15.20
21336;BMP180;69435;52.670;13.544;2023-11-19T14:24:07;99791.00;;;15.20
21336;BMP180;69435;52.670;13.544;2023-11-19T14:26:53;99770.00;;;15.20
21336;BMP180;69435;52.670;13.544;2023-11-19T14:29:40;99794.00;;;15.10
21336;BMP180;69435;52.670;13.544;2023-11-19T14:32:26;99796.00;;;15.10
21336;BMP180;69435;52.670;13.544;2023-11-19T14:35:12;99790.00;;;15.10
21336;BMP180;69435;52.670;13.544;2023-11-19T14:37:58;99797.00;;;15.10
21336;BMP180;69435;52.670;13.544;2023-11-19T14:40:45;99809.00;;;15.10
21336;BMP180;69435;52.670;13.544;2023-11-19T14:43:31;99780.00;;;15.20
21336;BMP180;69435;52.670;13.544;2023-11-19T14:46:17;99803.00;;;15.10
21336;BMP180;69435;52.670;13.544;2023-11-19T14:49:04;99803.00;;;15.00
21336;BMP180;69435;52.670;13.544;2023-11-19T14:51:51;99794.00;;;15.00
21336;BMP180;69435;52.670;13.544;2023-11-19T14:54:37;99807.00;;;15.00
21336;BMP180;69435;52.670;13.544;2023-11-19T14:57:24;99801.00;;;15.00
21336;BMP180;69435;52.670;13.544;2023-11-19T15:00:11;99801.00;;;15.00
21336;BMP180;69435;52.670;13.544;2023-11-19T15:03:00;99797.00;;;15.00
21336;BMP180;69435;52.670;13.544;2023-11-19T15:05:46;99803.00;;;15.00
21336;BMP180;69435;52.670;13.544;2023-11-19T15:08:33;99810.00;;;15.00
21336;BMP180;69435;52.670;13.544;2023-11-19T15:11:19;99811.00;;;15.00
21336;BMP180;69435;52.670;13.544;2023-11-19T15:14:05;99812.00;;;15.00
21336;BMP180;69435;52.670;13.544;2023-11-19T15:16:52;99821.00;;;15.00
21336;BMP180;69435;52.670;13.544;2023-11-19T15:19:38;99793.00;;;15.00
21336;BMP180;69435;52.670;13.544;2023-11-19T15:22:24;99818.00;;;14.90
21336;BMP180;69435;52.670;13.544;2023-11-19T15:25:10;99824.00;;;14.90
21336;BMP180;69435;52.670;13.544;2023-11-19T15:27:58;99791.00;;;14.90
21336;BMP180;69435;52.670;13.544;2023-11-19T15:30:44;99825.00;;;14.90
21336;BMP180;69435;52.670;13.544;2023-11-19T15:33:30;99827.00;;;14.90
21336;BMP180;69435;52.670;13.544;2023-11-19T15:36:17;99790.00;;;14.90
21336;BMP180;69435;52.670;13.544;2023-11-19T15:39:04;99825.00;;;14.90
21336;BMP180;69435;52.670;13.544;2023-11-19T15:41:50;99838.00;;;14.90
21336;BMP180;69435;52.670;13.544;2023-11-19T15:44:37;99842.00;;;14.90
21336;BMP180;69435;52.670;13.544;2023-11-19T15:47:24;99836.00;;;14.90
21336;BMP180;69435;52.670;13.544;2023-11-19T15:50:10;99826.00;;;14.90
21336;BMP180;69435;52.670;13.544;2023-11-19T15:52:56;99839.00;;;14.90
21336;BMP180;69435;52.670;13.544;2023-11-19T15:55:42;99838.00;;;14.90
21336;BMP180;69435;52.670;13.544;2023-11-19T15:58:30;99832.00;;;15.00
21336;BMP180;69435;52.670;13.544;2023-11-19T16:01:17;99821.00;;;15.00
21336;BMP180;69435;52.670;13.544;2023-11-19T16:04:04;99841.00;;;15.00